createdAt,value
2023-03-29T00:02:03.156Z,4.74
2023-03-29T00:04:29.807Z,4.81
2023-03-29T00:06:56.809Z,4.77
2023-03-29T00:09:26.532Z,4.83
2023-03-29T00:11:53.147Z,4.84
2023-03-29T00:14:19.954Z,4.91
2023-03-29T00:16:47.035Z,4.93
2023-03-29T00:19:13.704Z,4.90
2023-03-29T00:21:40.858Z,4.89
2023-03-29T00:24:07.523Z,4.98
2023-03-29T00:26:34.085Z,4.99
2023-03-29T00:29:00.597Z,4.93
2023-03-29T00:31:27.401Z,4.95
2023-03-29T00:33:54.049Z,4.95
2023-03-29T00:36:22.150Z,4.98
2023-03-29T00:38:48.909Z,4.98
2023-03-29T00:41:15.642Z,4.96
2023-03-29T00:44:02.814Z,5.00
2023-03-29T00:46:31.271Z,5.00
2023-03-29T00:49:05.274Z,4.89
2023-03-29T00:51:36.620Z,4.82
2023-03-29T00:54:10.484Z,4.68
2023-03-29T00:56:39.838Z,4.72
2023-03-29T00:59:16.182Z,4.82
2023-03-29T01:01:46.993Z,4.79
2023-03-29T01:04:42.663Z,4.79
2023-03-29T01:07:21.334Z,4.80
2023-03-29T01:09:58.985Z,4.51
2023-03-29T01:12:31.076Z,4.53
2023-03-29T01:15:03.485Z,4.71
2023-03-29T01:17:31.677Z,4.99
2023-03-29T01:20:10.772Z,5.12
2023-03-29T01:23:21.289Z,5.10
2023-03-29T01:25:54.059Z,5.17
2023-03-29T01:28:29.749Z,5.25
2023-03-29T01:31:03.804Z,5.29
2023-03-29T01:33:37.540Z,5.30
2023-03-29T01:36:17.356Z,5.22
2023-03-29T01:38:51.645Z,5.24
2023-03-29T01:41:18.408Z,5.24
2023-03-29T01:43:56.480Z,5.23
2023-03-29T01:46:36.665Z,5.29
2023-03-29T01:49:11.195Z,5.27
2023-03-29T01:51:43.299Z,5.27
2023-03-29T01:54:18.598Z,5.23
2023-03-29T01:56:49.261Z,5.22
2023-03-29T01:59:22.189Z,5.21
2023-03-29T02:01:52.895Z,5.18
2023-03-29T02:04:31.636Z,5.17
2023-03-29T02:07:00.686Z,5.10
2023-03-29T02:09:28.792Z,4.97
2023-03-29T02:11:59.154Z,4.86
2023-03-29T02:14:26.519Z,4.85
2023-03-29T02:16:53.175Z,4.77
2023-03-29T02:19:21.777Z,4.71
2023-03-29T02:22:04.020Z,4.68
2023-03-29T02:24:32.355Z,4.66
2023-03-29T02:26:59.684Z,4.67
2023-03-29T02:29:26.361Z,4.67
2023-03-29T02:32:09.947Z,4.55
2023-03-29T02:34:47.739Z,4.50
2023-03-29T02:37:18.874Z,4.54
2023-03-29T02:39:49.766Z,4.59
2023-03-29T02:42:20.495Z,4.64
2023-03-29T02:44:52.068Z,4.72
2023-03-29T02:47:24.589Z,4.68
2023-03-29T02:49:51.390Z,4.69
2023-03-29T02:52:23.973Z,4.68
2023-03-29T02:54:54.430Z,4.71
2023-03-29T02:57:26.576Z,4.70
2023-03-29T02:59:56.925Z,4.63
2023-03-29T03:02:26.228Z,4.67
2023-03-29T03:04:54.079Z,4.75
2023-03-29T03:07:21.010Z,4.67
2023-03-29T03:09:47.885Z,4.75
2023-03-29T03:12:14.590Z,4.72
2023-03-29T03:14:41.130Z,4.72
2023-03-29T03:17:07.720Z,4.69
2023-03-29T03:19:34.298Z,4.71
2023-03-29T03:22:00.946Z,4.75
2023-03-29T03:24:28.169Z,4.68
2023-03-29T03:26:55.491Z,4.67
2023-03-29T03:29:22.075Z,4.59
2023-03-29T03:32:20.062Z,4.64
2023-03-29T03:35:07.507Z,4.64
2023-03-29T03:37:34.212Z,4.66
2023-03-29T03:40:03.522Z,4.71
2023-03-29T03:42:30.241Z,4.73
2023-03-29T03:44:58.523Z,4.70
2023-03-29T03:48:00.692Z,4.64
2023-03-29T03:50:40.327Z,4.58
2023-03-29T03:53:08.355Z,4.60
2023-03-29T03:55:56.019Z,4.51
2023-03-29T03:58:27.122Z,4.47
2023-03-29T04:00:54.982Z,4.54
2023-03-29T04:03:35.929Z,4.53
2023-03-29T04:06:04.067Z,4.55
2023-03-29T04:08:47.968Z,4.60
2023-03-29T04:11:32.067Z,4.52
2023-03-29T04:13:59.126Z,4.53
2023-03-29T04:16:33.337Z,4.57
2023-03-29T04:19:14.635Z,4.59
2023-03-29T04:21:42.847Z,4.58
2023-03-29T04:24:09.447Z,4.65
2023-03-29T04:26:39.188Z,4.61
2023-03-29T04:29:12.141Z,4.69
2023-03-29T04:31:46.927Z,4.65
2023-03-29T04:34:32.140Z,4.66
2023-03-29T04:36:59.471Z,4.63
2023-03-29T04:39:34.314Z,4.60
2023-03-29T04:42:05.264Z,4.49
2023-03-29T04:44:33.624Z,4.46
2023-03-29T04:47:01.627Z,4.50
2023-03-29T04:50:03.917Z,4.59
2023-03-29T04:52:38.655Z,4.52
2023-03-29T04:55:07.289Z,4.55
2023-03-29T04:57:51.206Z,4.63
2023-03-29T05:00:21.226Z,4.64
2023-03-29T05:03:07.477Z,4.63
2023-03-29T05:05:38.467Z,4.64
2023-03-29T05:08:06.326Z,4.64
2023-03-29T05:11:01.968Z,4.70
2023-03-29T05:13:29.058Z,4.75
2023-03-29T05:15:57.124Z,4.74
2023-03-29T05:18:25.262Z,4.59
2023-03-29T05:20:53.136Z,4.61
2023-03-29T05:23:21.223Z,4.72
2023-03-29T05:26:08.047Z,4.74
2023-03-29T05:28:35.181Z,4.65
2023-03-29T05:31:05.131Z,4.66
2023-03-29T05:33:36.738Z,4.79
2023-03-29T05:36:13.701Z,4.79
2023-03-29T05:38:46.569Z,4.89
2023-03-29T05:41:15.881Z,4.79
2023-03-29T05:44:08.533Z,4.90
2023-03-29T05:46:36.176Z,4.96
2023-03-29T05:49:04.173Z,4.96
2023-03-29T05:51:52.043Z,4.93
2023-03-29T05:54:18.799Z,4.94
2023-03-29T05:56:45.470Z,5.00
2023-03-29T05:59:13.732Z,5.11
2023-03-29T06:01:41.830Z,5.13
2023-03-29T06:04:10.791Z,5.28
2023-03-29T06:06:43.782Z,5.35
2023-03-29T06:09:11.072Z,5.27
2023-03-29T06:12:08.032Z,5.37
2023-03-29T06:15:03.343Z,5.41
2023-03-29T06:17:37.077Z,5.41
2023-03-29T06:20:08.979Z,5.30
2023-03-29T06:22:37.741Z,5.32
2023-03-29T06:25:06.125Z,5.43
2023-03-29T06:27:33.975Z,5.59
2023-03-29T06:30:01.694Z,5.75
2023-03-29T06:32:28.608Z,5.85
2023-03-29T06:35:04.783Z,5.77
2023-03-29T06:37:49.940Z,5.96
2023-03-29T06:40:28.332Z,6.00
2023-03-29T06:42:59.358Z,6.07
2023-03-29T06:45:41.557Z,6.22
2023-03-29T06:48:17.859Z,6.30
2023-03-29T06:50:44.678Z,6.30
2023-03-29T06:53:15.589Z,6.40
2023-03-29T06:55:44.127Z,6.32
2023-03-29T06:58:29.250Z,6.27
2023-03-29T07:01:02.561Z,6.33
2023-03-29T07:03:50.098Z,6.59
2023-03-29T07:06:22.618Z,6.70
2023-03-29T07:08:52.354Z,6.76
2023-03-29T07:11:37.458Z,6.76
2023-03-29T07:14:18.635Z,6.90
2023-03-29T07:16:47.340Z,7.03
2023-03-29T07:19:19.647Z,7.19
2023-03-29T07:22:11.333Z,7.35
2023-03-29T07:24:46.865Z,7.60
2023-03-29T07:27:13.533Z,7.64
2023-03-29T07:29:40.073Z,7.65
2023-03-29T07:32:07.220Z,7.81
2023-03-29T07:34:42.856Z,7.83
2023-03-29T07:37:16.510Z,7.92
2023-03-29T07:39:45.112Z,7.96
2023-03-29T07:42:29.185Z,7.98
2023-03-29T07:44:56.265Z,8.14
2023-03-29T07:47:23.546Z,8.27
2023-03-29T07:49:50.370Z,8.38
2023-03-29T07:52:17.392Z,8.49
2023-03-29T07:54:43.964Z,8.75
2023-03-29T07:57:24.587Z,8.92
2023-03-29T07:59:54.354Z,8.99
2023-03-29T08:02:27.707Z,9.12
2023-03-29T08:04:57.718Z,9.38
2023-03-29T08:07:24.821Z,9.46
2023-03-29T08:10:15.310Z,9.42
2023-03-29T08:12:58.380Z,9.59
2023-03-29T08:15:47.306Z,9.88
2023-03-29T08:18:24.061Z,10.14
2023-03-29T08:20:51.079Z,10.17
2023-03-29T08:23:17.734Z,10.16
2023-03-29T08:26:01.194Z,10.37
2023-03-29T08:28:28.219Z,10.42
2023-03-29T08:30:54.993Z,10.47
2023-03-29T08:33:22.300Z,10.43
2023-03-29T08:35:57.779Z,10.62
2023-03-29T08:38:29.113Z,10.71
2023-03-29T08:40:56.237Z,10.78
2023-03-29T08:43:48.182Z,10.95
2023-03-29T08:47:08.456Z,11.06
2023-03-29T08:49:43.946Z,10.98
2023-03-29T08:52:21.982Z,11.08
2023-03-29T08:54:52.143Z,11.42
2023-03-29T08:57:41.096Z,11.78
2023-03-29T09:00:32.225Z,12.02
2023-03-29T09:03:02.444Z,11.99
2023-03-29T09:05:43.119Z,12.16
2023-03-29T09:08:21.270Z,12.18
2023-03-29T09:11:23.892Z,12.21
2023-03-29T09:14:30.556Z,12.08
2023-03-29T09:17:19.357Z,12.33
2023-03-29T09:19:57.419Z,12.53
2023-03-29T09:22:27.831Z,12.52
2023-03-29T09:25:07.056Z,12.66
2023-03-29T09:27:46.038Z,12.88
2023-03-29T09:30:26.015Z,12.77
2023-03-29T09:33:07.828Z,12.91
2023-03-29T09:36:10.410Z,12.83
2023-03-29T09:38:42.344Z,12.86
2023-03-29T09:41:24.862Z,13.03
2023-03-29T09:43:52.985Z,13.10
2023-03-29T09:46:34.306Z,12.94
2023-03-29T09:49:02.869Z,12.87
2023-03-29T09:51:30.975Z,12.64
2023-03-29T09:54:00.151Z,12.54
2023-03-29T09:56:59.333Z,12.54
2023-03-29T09:59:26.265Z,12.72
2023-03-29T10:01:53.017Z,12.67
2023-03-29T10:04:21.433Z,12.45
2023-03-29T10:06:54.698Z,12.49
2023-03-29T10:09:24.676Z,12.51
2023-03-29T10:12:02.101Z,12.47
2023-03-29T10:14:41.256Z,12.37
2023-03-29T10:17:29.529Z,12.26
2023-03-29T10:19:58.299Z,12.32
2023-03-29T10:22:27.822Z,12.46
2023-03-29T10:24:57.130Z,12.67
2023-03-29T10:27:28.913Z,12.88
2023-03-29T10:29:58.451Z,12.93
2023-03-29T10:32:40.705Z,12.94
2023-03-29T10:35:18.258Z,13.02
2023-03-29T10:37:49.907Z,13.05
2023-03-29T10:40:33.746Z,13.12
2023-03-29T10:43:10.921Z,12.85
2023-03-29T10:45:38.584Z,12.81
2023-03-29T10:48:07.007Z,12.60
2023-03-29T10:50:36.984Z,12.68
2023-03-29T10:53:13.142Z,12.97
2023-03-29T10:56:27.974Z,13.06
2023-03-29T10:59:10.086Z,13.14
2023-03-29T11:02:15.369Z,13.12
2023-03-29T11:04:52.663Z,13.29
2023-03-29T11:07:33.449Z,13.52
2023-03-29T11:10:28.421Z,13.75
2023-03-29T11:13:33.038Z,13.83
2023-03-29T11:16:13.038Z,13.95
2023-03-29T11:18:48.573Z,14.01
2023-03-29T11:21:29.953Z,14.02
2023-03-29T11:24:03.532Z,13.92
2023-03-29T11:26:47.664Z,13.93
2023-03-29T11:29:27.141Z,13.87
2023-03-29T11:32:05.606Z,13.61
2023-03-29T11:34:45.017Z,13.63
2023-03-29T11:37:25.305Z,14.01
2023-03-29T11:40:15.302Z,14.18
2023-03-29T11:42:48.254Z,14.18
2023-03-29T11:45:27.320Z,14.28
2023-03-29T11:47:54.280Z,14.41
2023-03-29T11:50:34.185Z,14.31
2023-03-29T11:53:08.630Z,14.34
2023-03-29T11:55:38.779Z,14.46
2023-03-29T11:58:08.578Z,14.41
2023-03-29T12:00:49.011Z,14.33
2023-03-29T12:03:36.955Z,14.03
2023-03-29T12:06:22.467Z,14.03
2023-03-29T12:09:17.348Z,13.92
2023-03-29T12:11:56.149Z,14.05
2023-03-29T12:14:38.858Z,13.98
2023-03-29T12:17:11.781Z,14.38
2023-03-29T12:20:02.660Z,14.78
2023-03-29T12:22:29.396Z,14.96
2023-03-29T12:24:57.671Z,15.37
2023-03-29T12:27:42.464Z,15.43
2023-03-29T12:30:23.975Z,14.88
2023-03-29T12:33:00.901Z,14.95
2023-03-29T12:35:52.906Z,15.27
2023-03-29T12:38:44.758Z,15.62
2023-03-29T12:41:37.076Z,15.64
2023-03-29T12:44:46.887Z,15.99
2023-03-29T12:47:35.598Z,16.60
2023-03-29T12:50:04.557Z,16.79
2023-03-29T12:52:35.819Z,16.83
2023-03-29T12:55:23.195Z,16.54
2023-03-29T12:58:09.843Z,16.43
2023-03-29T13:00:36.381Z,16.29
2023-03-29T13:03:19.712Z,16.19
2023-03-29T13:05:47.055Z,16.09
2023-03-29T13:08:27.981Z,16.10
2023-03-29T13:10:56.231Z,16.22
2023-03-29T13:13:27.872Z,16.33
2023-03-29T13:15:55.077Z,16.27
2023-03-29T13:18:38.071Z,16.09
2023-03-29T13:21:16.173Z,15.98
2023-03-29T13:24:05.571Z,15.92
2023-03-29T13:26:56.952Z,15.90
2023-03-29T13:30:05.749Z,16.12
2023-03-29T13:32:47.320Z,16.55
2023-03-29T13:35:30.690Z,16.56
2023-03-29T13:38:09.060Z,16.68
2023-03-29T13:40:38.949Z,16.94
2023-03-29T13:43:25.392Z,17.23
2023-03-29T13:45:58.036Z,17.41
2023-03-29T13:48:27.438Z,17.10
2023-03-29T13:51:02.129Z,16.83
2023-03-29T13:53:38.418Z,16.47
2023-03-29T13:56:10.519Z,16.58
2023-03-29T13:58:47.944Z,16.95
2023-03-29T14:01:24.594Z,17.20
2023-03-29T14:03:52.362Z,17.32
2023-03-29T14:06:26.625Z,17.55
2023-03-29T14:08:54.124Z,17.79
2023-03-29T14:11:28.765Z,17.40
2023-03-29T14:14:00.467Z,17.11
2023-03-29T14:16:35.237Z,16.90
2023-03-29T14:19:13.436Z,16.54
2023-03-29T14:21:41.425Z,16.38
2023-03-29T14:24:12.828Z,16.33
2023-03-29T14:26:43.318Z,16.18
2023-03-29T14:29:11.099Z,16.13
2023-03-29T14:31:40.234Z,16.23
2023-03-29T14:34:18.362Z,16.37
2023-03-29T14:36:48.958Z,16.51
2023-03-29T14:39:21.793Z,16.64
2023-03-29T14:41:53.887Z,16.88
2023-03-29T14:44:26.009Z,16.96
2023-03-29T14:46:53.555Z,17.18
2023-03-29T14:49:24.617Z,17.12
2023-03-29T14:51:52.974Z,17.15
2023-03-29T14:54:22.678Z,17.23
2023-03-29T14:56:50.713Z,17.06
2023-03-29T14:59:29.770Z,16.78
2023-03-29T15:01:56.836Z,16.68
2023-03-29T15:04:23.972Z,16.58
2023-03-29T15:06:52.438Z,16.63
2023-03-29T15:09:34.019Z,16.60
2023-03-29T15:12:03.142Z,16.31
2023-03-29T15:14:34.037Z,16.14
2023-03-29T15:17:04.595Z,16.01
2023-03-29T15:19:32.424Z,16.09
2023-03-29T15:22:11.229Z,16.01
2023-03-29T15:24:47.416Z,15.98
2023-03-29T15:27:18.689Z,15.87
2023-03-29T15:29:47.355Z,15.75
2023-03-29T15:32:25.625Z,15.65
2023-03-29T15:35:00.480Z,15.58
2023-03-29T15:37:27.777Z,15.48
2023-03-29T15:39:54.690Z,15.51
2023-03-29T15:42:21.574Z,15.43
2023-03-29T15:44:48.435Z,15.43
2023-03-29T15:47:15.137Z,15.49
2023-03-29T15:49:41.917Z,15.52
2023-03-29T15:52:08.589Z,15.58
2023-03-29T15:54:37.100Z,15.64
2023-03-29T15:57:08.532Z,15.57
2023-03-29T15:59:36.344Z,15.44
2023-03-29T16:02:03.742Z,15.39
2023-03-29T16:04:30.426Z,15.29
2023-03-29T16:06:57.718Z,15.25
2023-03-29T16:09:25.711Z,15.21
2023-03-29T16:11:52.308Z,15.13
2023-03-29T16:14:27.314Z,15.10
2023-03-29T16:17:01.397Z,14.98
2023-03-29T16:19:29.998Z,14.90
2023-03-29T16:21:57.137Z,14.82
2023-03-29T16:24:26.329Z,14.74
2023-03-29T16:26:55.617Z,14.56
2023-03-29T16:29:24.584Z,14.46
2023-03-29T16:31:52.657Z,14.44
2023-03-29T16:34:20.067Z,14.41
2023-03-29T16:36:47.829Z,14.28
2023-03-29T16:39:14.768Z,14.13
2023-03-29T16:41:42.352Z,14.00
2023-03-29T16:44:15.289Z,13.88
2023-03-29T16:46:42.102Z,13.91
2023-03-29T16:49:13.950Z,13.78
2023-03-29T16:51:40.659Z,13.65
2023-03-29T16:54:07.393Z,13.48
2023-03-29T16:56:36.467Z,13.35
2023-03-29T16:59:03.699Z,13.20
2023-03-29T17:01:30.418Z,13.30
2023-03-29T17:03:57.298Z,13.15
2023-03-29T17:06:23.893Z,13.05
2023-03-29T17:08:50.651Z,12.95
2023-03-29T17:11:17.570Z,12.84
2023-03-29T17:13:44.530Z,12.73
2023-03-29T17:16:11.166Z,12.57
2023-03-29T17:18:37.887Z,12.45
2023-03-29T17:21:04.792Z,12.39
2023-03-29T17:23:31.354Z,12.30
2023-03-29T17:25:57.972Z,12.29
2023-03-29T17:28:24.695Z,12.24
2023-03-29T17:30:51.924Z,12.22
2023-03-29T17:33:22.421Z,12.16
2023-03-29T17:35:49.429Z,12.07
2023-03-29T17:38:16.037Z,12.02
2023-03-29T17:40:42.683Z,12.01
2023-03-29T17:43:09.316Z,12.00
2023-03-29T17:45:36.032Z,11.98
2023-03-29T17:48:05.553Z,11.92
2023-03-29T17:50:32.950Z,11.82
2023-03-29T17:52:59.559Z,11.74
2023-03-29T17:55:26.492Z,11.68
2023-03-29T17:57:53.164Z,11.64
2023-03-29T18:00:20.063Z,11.50
2023-03-29T18:05:13.368Z,11.54
2023-03-29T18:07:40.027Z,11.56
2023-03-29T18:10:08.216Z,11.57
2023-03-29T18:12:34.969Z,11.56
2023-03-29T18:15:01.725Z,11.53
2023-03-29T18:17:28.534Z,11.50
2023-03-29T18:19:55.294Z,11.56
2023-03-29T18:22:23.920Z,11.58
2023-03-29T18:24:50.984Z,11.61
2023-03-29T18:27:17.828Z,11.57
2023-03-29T18:29:44.804Z,11.57
2023-03-29T18:32:11.856Z,11.59
2023-03-29T18:34:39.401Z,11.57
2023-03-29T18:37:06.308Z,11.57
2023-03-29T18:39:34.654Z,11.55
2023-03-29T18:42:01.760Z,11.48
2023-03-29T18:44:28.766Z,11.40
2023-03-29T18:46:55.424Z,11.31
2023-03-29T18:49:22.035Z,11.16
2023-03-29T18:51:49.947Z,11.14
2023-03-29T18:54:17.127Z,11.16
2023-03-29T18:56:43.981Z,11.28
2023-03-29T18:59:11.428Z,11.38
2023-03-29T19:01:38.675Z,11.55
2023-03-29T19:04:06.189Z,11.64
2023-03-29T19:06:32.819Z,11.75
2023-03-29T19:09:01.970Z,11.79
2023-03-29T19:11:33.156Z,11.77
2023-03-29T19:14:00.014Z,11.75
2023-03-29T19:16:27.559Z,11.67
2023-03-29T19:18:54.284Z,11.59
2023-03-29T19:21:20.929Z,11.54
2023-03-29T19:23:47.630Z,11.49
2023-03-29T19:26:15.340Z,11.49
2023-03-29T19:28:42.050Z,11.45
2023-03-29T19:31:08.706Z,11.46
2023-03-29T19:33:35.461Z,11.40
2023-03-29T19:36:02.490Z,11.32
2023-03-29T19:38:29.300Z,11.30
2023-03-29T19:40:55.883Z,11.31
2023-03-29T19:43:22.505Z,11.36
2023-03-29T19:45:50.694Z,11.33
2023-03-29T19:48:23.490Z,11.32
2023-03-29T19:50:51.415Z,11.32
2023-03-29T19:53:18.133Z,11.38
2023-03-29T19:55:45.380Z,11.51
2023-03-29T19:58:12.918Z,11.57
2023-03-29T20:00:39.857Z,11.63
2023-03-29T20:03:10.564Z,11.61
2023-03-29T20:05:38.522Z,11.61
2023-03-29T20:08:05.356Z,11.59
2023-03-29T20:10:32.382Z,11.54
2023-03-29T20:12:59.263Z,11.54
2023-03-29T20:15:26.035Z,11.58
2023-03-29T20:17:55.328Z,11.57
2023-03-29T20:20:24.609Z,11.47
2023-03-29T20:22:54.001Z,11.64
2023-03-29T20:25:21.244Z,11.68
2023-03-29T20:27:49.621Z,11.64
2023-03-29T20:30:16.468Z,11.59
2023-03-29T20:32:43.181Z,11.55
2023-03-29T20:35:11.117Z,11.46
2023-03-29T20:37:37.647Z,11.51
2023-03-29T20:40:05.480Z,11.48
2023-03-29T20:42:34.434Z,11.42
2023-03-29T20:45:01.829Z,11.42
2023-03-29T20:47:29.509Z,11.36
2023-03-29T20:49:56.902Z,11.36
2023-03-29T20:52:24.722Z,11.36
2023-03-29T20:54:52.480Z,11.34
2023-03-29T20:57:20.893Z,11.40
2023-03-29T20:59:49.295Z,11.35
2023-03-29T21:02:21.510Z,11.32
2023-03-29T21:04:52.961Z,11.36
2023-03-29T21:07:21.353Z,11.36
2023-03-29T21:09:49.865Z,11.35
2023-03-29T21:12:17.454Z,11.28
2023-03-29T21:14:44.960Z,11.24
2023-03-29T21:17:11.608Z,11.29
2023-03-29T21:19:39.303Z,11.33
2023-03-29T21:22:05.972Z,11.36
2023-03-29T21:24:33.150Z,11.27
2023-03-29T21:26:59.990Z,11.27
2023-03-29T21:29:26.567Z,11.19
2023-03-29T21:31:53.230Z,11.16
2023-03-29T21:34:19.934Z,11.09
2023-03-29T21:36:46.553Z,11.07
2023-03-29T21:39:13.168Z,11.03
2023-03-29T21:41:39.737Z,10.91
2023-03-29T21:44:06.384Z,10.88
2023-03-29T21:46:33.106Z,10.91
2023-03-29T21:48:59.745Z,10.91
2023-03-29T21:51:27.000Z,10.87
2023-03-29T21:53:53.608Z,10.93
2023-03-29T21:56:20.326Z,10.98
2023-03-29T21:58:46.888Z,11.08
2023-03-29T22:01:13.448Z,11.00
2023-03-29T22:03:40.106Z,11.03
2023-03-29T22:06:09.346Z,11.12
2023-03-29T22:08:38.698Z,11.14
2023-03-29T22:11:08.472Z,11.01
2023-03-29T22:13:35.260Z,10.97
2023-03-29T22:16:03.873Z,10.98
2023-03-29T22:18:42.633Z,10.97
2023-03-29T22:21:15.130Z,10.89
2023-03-29T22:23:43.146Z,10.87
2023-03-29T22:26:12.087Z,10.86
2023-03-29T22:28:39.549Z,10.80
2023-03-29T22:31:09.201Z,10.89
2023-03-29T22:33:36.994Z,10.94
2023-03-29T22:36:21.945Z,10.90
2023-03-29T22:38:50.258Z,10.91
2023-03-29T22:41:18.596Z,10.97
2023-03-29T22:43:45.380Z,11.03
2023-03-29T22:46:13.971Z,10.98
2023-03-29T22:48:41.290Z,10.94
2023-03-29T22:51:07.839Z,10.88
2023-03-29T22:53:34.408Z,10.96
2023-03-29T22:56:01.293Z,11.05
2023-03-29T22:58:29.368Z,11.15
2023-03-29T23:00:57.116Z,11.11
2023-03-29T23:03:23.966Z,11.12
2023-03-29T23:05:51.925Z,11.14
2023-03-29T23:08:18.434Z,11.25
2023-03-29T23:10:48.226Z,11.34
2023-03-29T23:13:20.457Z,11.40
2023-03-29T23:15:48.868Z,11.39
2023-03-29T23:18:18.166Z,11.34
2023-03-29T23:20:47.178Z,11.34
2023-03-29T23:23:15.345Z,11.29
2023-03-29T23:25:46.546Z,11.25
2023-03-29T23:28:14.818Z,11.19
2023-03-29T23:30:41.603Z,11.26
2023-03-29T23:33:10.574Z,11.26
2023-03-29T23:35:37.490Z,11.11
2023-03-29T23:38:05.500Z,10.96
2023-03-29T23:40:33.137Z,10.82
2023-03-29T23:42:59.788Z,10.74
2023-03-29T23:45:27.907Z,10.75
2023-03-29T23:47:55.062Z,10.72
2023-03-29T23:50:22.603Z,10.67
2023-03-29T23:52:51.400Z,10.70
2023-03-29T23:55:18.018Z,10.70
2023-03-29T23:57:44.549Z,10.72
